CST,Max TemperatureF,Mean TemperatureF,Min TemperatureF,Max Dew PointF,MeanDew PointF,Min DewpointF,Max Humidity, Mean Humidity, Min Humidity, Max Sea Level PressureIn, Mean Sea Level PressureIn, Min Sea Level PressureIn, Max VisibilityMiles, Mean VisibilityMiles, Min VisibilityMiles, Max Wind SpeedMPH, Mean Wind SpeedMPH, Max Gust SpeedMPH,PrecipitationIn, CloudCover, Events, WindDirDegrees
2012-11-1,73,53,32,39,34,29,88,56,26,30.07,29.98,29.87,10,10,9,14,7,,0.00,0,Snow,183
2012-11-2,62,46,30,40,36,31,93,69,39,30.16,29.96,29.82,10,9,4,26,9,32,0.00,0,,20
2012-11-3,65,46,27,37,31,26,92,66,29,30.29,30.21,30.14,10,10,8,10,5,16,0.00,0,,218
2012-11-4,67,49,31,37,31,25,82,55,21,30.18,30.11,30.03,10,10,9,15,9,,0.00,1,Snow,282
2012-11-5,58,44,29,35,31,28,87,61,36,30.26,30.16,30.05,10,10,10,14,9,16,0.00,0,,283
2012-11-6,66,49,31,38,31,25,76,53,27,30.23,30.15,30.03,10,10,10,20,10,24,0.00,0,,312
2012-11-7,70,47,24,33,27,21,85,52,23,30.20,30.05,29.89,10,10,10,17,6,23,0.00,0,,150
2012-11-8,67,47,27,33,29,23,82,56,29,29.94,29.89,29.84,10,10,10,16,6,24,0.00,0,,33
2012-11-9,54,42,29,37,33,27,100,81,55,29.88,29.75,29.63,10,5,0,13,7,,0.00,2,Fog,49
2012-11-10,69,47,25,41,33,18,100,82,36,29.88,29.61,29.39,10,6,0,28,8,32,0.04,6,Fog-Rain-Thunderstorm,1
2012-11-11,36,25,13,18,12,7,80,62,33,30.35,30.10,29.86,10,10,10,23,14,29,0.00,2,,313
2012-11-12,49,29,8,15,8,5,84,51,17,30.46,30.40,30.34,10,10,10,24,10,32,0.00,0,,272
2012-11-13,52,33,13,13,9,7,74,48,17,30.38,30.32,30.25,10,10,9,9,2,,0.00,0,,227
2012-11-14,60,40,19,27,21,14,88,58,26,30.38,30.28,30.15,10,10,10,13,7,,0.00,0,,240
2012-11-15,60,44,27,29,23,20,67,47,25,30.45,30.33,30.17,10,10,10,17,7,22,0.00,0,,359
2012-11-16,60,39,18,34,26,14,85,61,32,30.45,30.33,30.15,10,10,10,16,5,26,0.00,0,,168
2012-11-17,58,44,29,35,31,25,96,67,39,30.15,30.11,30.06,10,9,3,12,5,,0.00,0,,167
2012-11-18,60,43,25,36,29,21,89,72,44,30.07,30.03,29.95,10,9,7,9,3,,0.00,0,,234
2012-11-19,68,50,31,34,29,26,85,57,26,30.25,30.15,30.04,10,10,8,16,10,21,0.00,0,,290
2012-11-20,74,49,24,30,26,21,81,52,18,30.30,30.19,30.08,10,10,9,18,6,26,0.00,0,,223
2012-11-21,71,51,30,30,23,19,69,39,15,30.07,29.92,29.80,10,10,9,15,6,,0.00,0,,207
2012-11-22,58,43,27,34,22,14,66,48,30,30.47,30.09,29.78,10,10,10,25,11,37,0.00,0,,310
2012-11-23,45,31,16,17,14,11,81,55,32,30.66,30.53,30.34,10,10,10,12,7,,0.00,0,,265
2012-11-24,71,46,20,22,17,12,68,43,14,30.30,30.02,29.84,10,10,10,14,5,,0.00,0,,240
2012-11-25,53,40,26,29,23,18,72,54,40,30.10,29.99,29.93,10,10,10,12,7,,0.00,0,,72
2012-11-26,38,29,19,25,21,16,88,70,54,30.48,30.38,30.12,10,9,7,15,7,,0.00,4,,31
2012-11-27,46,32,17,25,19,15,89,71,40,30.45,30.29,30.12,10,9,6,14,7,,0.00,0,,196
2012-11-28,54,33,12,26,20,9,88,63,33,30.41,30.24,30.07,10,9,4,10,5,,0.00,0,,227
2012-11-29,68,44,19,23,17,14,85,46,14,30.06,30.01,29.91,10,10,9,10,6,,0.00,0,,253
2012-11-30,59,41,23,26,21,15,71,52,26,30.12,30.01,29.88,10,10,9,12,6,,0.00,0,,171